createdAt,value
2022-08-24T00:01:52.335Z,14.98
2022-08-24T00:04:19.638Z,14.45
2022-08-24T00:06:46.896Z,10.43
2022-08-24T00:09:14.110Z,11.73
2022-08-24T00:11:41.316Z,10.95
2022-08-24T00:14:08.848Z,9.10
2022-08-24T00:16:36.161Z,6.97
2022-08-24T00:19:03.418Z,13.65
2022-08-24T00:21:30.664Z,11.27
2022-08-24T00:23:57.918Z,10.32
2022-08-24T00:26:29.414Z,9.50
2022-08-24T00:28:56.937Z,9.27
2022-08-24T00:31:24.534Z,10.45
2022-08-24T00:33:51.794Z,9.98
2022-08-24T00:36:20.762Z,9.45
2022-08-24T00:38:48.093Z,10.60
2022-08-24T00:41:17.779Z,8.55
2022-08-24T00:43:54.535Z,12.43
2022-08-24T00:46:24.137Z,8.15
2022-08-24T00:48:55.288Z,13.25
2022-08-24T00:51:27.860Z,9.93
2022-08-24T00:54:02.376Z,10.23
2022-08-24T00:56:33.085Z,13.55
2022-08-24T00:59:03.026Z,11.80
2022-08-24T01:01:31.262Z,12.30
2022-08-24T01:04:00.012Z,15.30
2022-08-24T01:06:27.778Z,8.77
2022-08-24T01:08:56.610Z,10.73
2022-08-24T01:11:25.339Z,11.05
2022-08-24T01:13:52.990Z,19.27
2022-08-24T01:16:40.966Z,12.23
2022-08-24T01:19:16.638Z,8.02
2022-08-24T01:22:00.291Z,7.63
2022-08-24T01:24:27.454Z,11.30
2022-08-24T01:26:54.627Z,7.10
2022-08-24T01:29:27.981Z,8.85
2022-08-24T01:31:55.518Z,8.45
2022-08-24T01:34:22.680Z,6.72
2022-08-24T01:36:51.743Z,7.93
2022-08-24T01:39:24.944Z,11.70
2022-08-24T01:41:52.192Z,8.60
2022-08-24T01:44:20.336Z,10.15
2022-08-24T01:46:49.229Z,11.55
2022-08-24T01:49:17.235Z,10.57
2022-08-24T01:51:46.246Z,12.07
2022-08-24T01:54:14.782Z,9.43
2022-08-24T01:56:41.954Z,10.82
2022-08-24T01:59:09.497Z,8.05
2022-08-24T02:01:39.089Z,9.50
2022-08-24T02:04:09.532Z,11.15
2022-08-24T02:06:37.785Z,8.27
2022-08-24T02:09:05.347Z,8.70
2022-08-24T02:11:32.956Z,8.57
2022-08-24T02:14:00.833Z,10.65
2022-08-24T02:16:28.763Z,7.95
2022-08-24T02:18:56.345Z,9.90
2022-08-24T02:21:23.719Z,9.73
2022-08-24T02:23:51.946Z,11.95
2022-08-24T02:26:19.358Z,10.05
2022-08-24T02:28:46.506Z,13.27
2022-08-24T02:31:15.397Z,7.50
2022-08-24T02:33:42.681Z,10.93
2022-08-24T02:36:26.149Z,8.93
2022-08-24T02:38:54.232Z,11.88
2022-08-24T02:41:22.007Z,11.13
2022-08-24T02:43:49.135Z,11.38
2022-08-24T02:46:23.290Z,8.73
2022-08-24T02:48:57.632Z,15.73
2022-08-24T02:51:43.845Z,8.25
2022-08-24T02:54:12.951Z,11.63
2022-08-24T02:56:40.166Z,11.13
2022-08-24T02:59:07.374Z,8.63
2022-08-24T03:01:34.566Z,10.77
2022-08-24T03:04:03.665Z,10.18
2022-08-24T03:06:30.823Z,9.30
2022-08-24T03:08:58.000Z,9.98
2022-08-24T03:11:28.250Z,10.82
2022-08-24T03:13:59.375Z,10.73
2022-08-24T03:16:28.132Z,8.93
2022-08-24T03:18:55.392Z,9.70
2022-08-24T03:21:22.589Z,12.10
2022-08-24T03:23:49.756Z,6.70
2022-08-24T03:26:16.922Z,8.88
2022-08-24T03:28:44.477Z,8.80
2022-08-24T03:31:12.759Z,8.30
2022-08-24T03:33:40.053Z,8.93
2022-08-24T03:36:10.125Z,13.05
2022-08-24T03:38:39.560Z,13.02
2022-08-24T03:41:06.760Z,11.80
2022-08-24T03:43:46.404Z,12.75
2022-08-24T03:46:14.877Z,10.32
2022-08-24T03:48:44.353Z,11.82
2022-08-24T03:51:12.463Z,10.73
2022-08-24T03:53:42.371Z,10.45
2022-08-24T03:56:10.694Z,10.05
2022-08-24T03:58:41.651Z,10.27
2022-08-24T04:01:09.496Z,12.02
2022-08-24T04:03:41.001Z,11.02
2022-08-24T04:06:09.017Z,11.23
2022-08-24T04:08:39.880Z,13.13
2022-08-24T04:11:10.371Z,7.43
2022-08-24T04:13:37.509Z,10.63
2022-08-24T04:16:05.838Z,11.45
2022-08-24T04:18:33.177Z,8.95
2022-08-24T04:21:00.377Z,11.68
2022-08-24T04:23:29.131Z,10.10
2022-08-24T04:28:41.607Z,9.68
2022-08-24T04:31:08.817Z,10.65
2022-08-24T04:33:36.090Z,9.15
2022-08-24T04:36:03.300Z,9.30
2022-08-24T04:38:30.750Z,9.65
2022-08-24T04:41:00.230Z,7.63
2022-08-24T04:43:27.675Z,7.75
2022-08-24T04:45:54.839Z,8.73
2022-08-24T04:48:22.589Z,10.35
2022-08-24T04:50:49.794Z,9.25
2022-08-24T04:53:17.334Z,8.65
2022-08-24T04:55:44.899Z,12.15
2022-08-24T04:58:13.168Z,13.13
2022-08-24T05:00:40.508Z,16.42
2022-08-24T05:03:07.975Z,28.92
2022-08-24T05:05:35.374Z,25.98
2022-08-24T05:08:02.755Z,36.45
2022-08-24T05:10:33.703Z,31.52
2022-08-24T05:13:01.080Z,19.52
2022-08-24T05:15:28.278Z,21.08
2022-08-24T05:17:55.445Z,27.67
2022-08-24T05:20:22.804Z,23.15
2022-08-24T05:22:55.650Z,38.45
2022-08-24T05:25:23.581Z,17.95
2022-08-24T05:27:51.545Z,14.80
2022-08-24T05:30:18.798Z,16.30
2022-08-24T05:32:46.584Z,20.35
2022-08-24T05:35:13.854Z,14.57
2022-08-24T05:37:43.083Z,21.42
2022-08-24T05:40:11.834Z,19.98
2022-08-24T05:42:39.632Z,20.20
2022-08-24T05:45:07.189Z,23.85
2022-08-24T05:47:34.754Z,16.67
2022-08-24T05:50:02.725Z,16.90
2022-08-24T05:52:30.258Z,16.00
2022-08-24T05:54:58.648Z,18.55
2022-08-24T05:57:26.928Z,14.13
2022-08-24T05:59:54.056Z,11.35
2022-08-24T06:02:21.255Z,14.73
2022-08-24T06:04:48.479Z,18.92
2022-08-24T06:07:15.815Z,15.45
2022-08-24T06:09:43.485Z,15.82
2022-08-24T06:12:11.958Z,14.50
2022-08-24T06:14:39.523Z,11.15
2022-08-24T06:17:08.645Z,11.95
2022-08-24T06:22:02.903Z,7.25
2022-08-24T06:25:02.301Z,11.70
2022-08-24T06:27:29.771Z,9.95
2022-08-24T06:30:01.549Z,8.27
2022-08-24T06:32:29.265Z,8.05
2022-08-24T06:34:57.432Z,9.10
2022-08-24T06:37:26.695Z,7.22
2022-08-24T06:39:57.259Z,6.95
2022-08-24T06:42:24.926Z,7.57
2022-08-24T06:44:52.867Z,8.15
2022-08-24T06:47:20.085Z,10.90
2022-08-24T06:49:47.289Z,8.00
2022-08-24T06:52:14.569Z,13.25
2022-08-24T06:54:41.709Z,9.25
2022-08-24T06:57:08.923Z,13.57
2022-08-24T06:59:36.067Z,8.48
2022-08-24T07:02:03.280Z,7.75
2022-08-24T07:04:30.510Z,9.30
2022-08-24T07:06:57.709Z,7.82
2022-08-24T07:09:25.053Z,8.52
2022-08-24T07:11:52.635Z,13.57
2022-08-24T07:14:21.646Z,10.85
2022-08-24T07:16:49.149Z,19.70
2022-08-24T07:19:16.326Z,17.65
2022-08-24T07:21:43.535Z,13.32
2022-08-24T07:24:10.806Z,10.43
2022-08-24T07:26:38.781Z,11.00
2022-08-24T07:29:07.774Z,7.43
2022-08-24T07:31:39.427Z,6.60
2022-08-24T07:34:07.435Z,9.73
2022-08-24T07:36:35.226Z,11.27
2022-08-24T07:39:02.825Z,6.70
2022-08-24T07:41:43.319Z,8.65
2022-08-24T07:44:18.397Z,10.98
2022-08-24T07:46:45.732Z,7.07
2022-08-24T07:59:22.046Z,9.27
2022-08-24T08:04:21.911Z,9.07
2022-08-24T08:06:49.249Z,7.70
2022-08-24T08:09:16.511Z,9.40
2022-08-24T08:11:44.183Z,9.88
2022-08-24T08:14:11.929Z,7.65
2022-08-24T08:16:39.208Z,7.22
2022-08-24T08:19:10.175Z,9.93
2022-08-24T08:22:03.771Z,7.75
2022-08-24T08:24:31.014Z,5.30
2022-08-24T08:26:58.432Z,5.47
2022-08-24T08:29:26.034Z,4.93
2022-08-24T08:31:54.136Z,6.07
2022-08-24T08:34:21.387Z,9.45
2022-08-24T08:36:48.859Z,10.52
2022-08-24T08:39:17.295Z,7.60
2022-08-24T08:41:48.739Z,10.23
2022-08-24T08:44:20.212Z,6.72
2022-08-24T08:46:50.314Z,9.05
2022-08-24T08:49:32.452Z,6.18
2022-08-24T08:51:59.589Z,6.45
2022-08-24T08:54:26.988Z,5.57
2022-08-24T08:57:03.265Z,7.13
2022-08-24T08:59:33.473Z,9.77
2022-08-24T09:02:07.904Z,4.75
2022-08-24T09:04:44.587Z,6.45
2022-08-24T09:07:27.945Z,4.32
2022-08-24T09:10:10.074Z,6.63
2022-08-24T09:15:18.564Z,3.90
2022-08-24T09:17:48.742Z,5.38
2022-08-24T09:20:38.251Z,9.48
2022-08-24T09:23:11.326Z,4.53
2022-08-24T09:25:38.467Z,4.88
2022-08-24T09:28:14.827Z,9.80
2022-08-24T09:31:00.841Z,7.93
2022-08-24T09:33:51.053Z,7.55
2022-08-24T09:36:28.762Z,11.65
2022-08-24T09:38:55.875Z,6.22
2022-08-24T09:41:41.794Z,8.45
2022-08-24T09:44:24.356Z,4.50
2022-08-24T09:46:57.844Z,5.00
2022-08-24T09:49:43.714Z,7.70
2022-08-24T09:52:29.650Z,5.43
2022-08-24T09:55:04.772Z,6.93
2022-08-24T10:00:34.736Z,7.95
2022-08-24T10:03:08.012Z,5.38
2022-08-24T10:05:41.299Z,7.20
2022-08-24T10:08:14.654Z,7.25
2022-08-24T10:10:47.950Z,6.13
2022-08-24T10:13:20.880Z,9.85
2022-08-24T10:16:07.248Z,6.47
2022-08-24T10:18:53.484Z,8.02
2022-08-24T10:21:33.828Z,6.50
2022-08-24T10:24:03.790Z,8.27
2022-08-24T10:26:30.896Z,8.55
2022-08-24T10:29:10.254Z,6.95
2022-08-24T10:31:37.396Z,6.85
2022-08-24T10:34:14.861Z,8.23
2022-08-24T10:36:41.991Z,7.55
2022-08-24T10:39:41.372Z,7.40
2022-08-24T10:42:37.539Z,5.28
2022-08-24T10:45:22.748Z,8.02
2022-08-24T10:48:05.536Z,7.93
2022-08-24T10:50:32.836Z,5.78
2022-08-24T10:53:02.704Z,7.82
2022-08-24T10:55:31.344Z,6.55
2022-08-24T10:58:34.371Z,6.45
2022-08-24T11:01:13.591Z,6.85
2022-08-24T11:03:49.766Z,9.82
2022-08-24T11:06:18.671Z,4.18
2022-08-24T11:08:53.817Z,5.38
2022-08-24T11:11:36.367Z,8.18
2022-08-24T11:14:09.873Z,9.07
2022-08-24T11:16:38.704Z,7.43
2022-08-24T11:19:13.512Z,9.15
2022-08-24T11:21:51.671Z,6.88
2022-08-24T11:24:18.753Z,4.88
2022-08-24T11:26:55.327Z,6.22
2022-08-24T11:29:23.557Z,9.70
2022-08-24T11:31:52.620Z,8.00
2022-08-24T11:34:32.062Z,5.78
2022-08-24T11:36:59.306Z,4.78
2022-08-24T11:39:37.122Z,5.20
2022-08-24T11:42:04.215Z,4.75
2022-08-24T11:44:52.768Z,7.72
2022-08-24T11:47:23.445Z,4.25
2022-08-24T11:50:23.474Z,6.10
2022-08-24T11:52:53.731Z,7.18
2022-08-24T11:55:46.795Z,5.13
2022-08-24T11:58:27.718Z,4.35
2022-08-24T12:01:14.159Z,4.70
2022-08-24T12:03:52.651Z,9.10
2022-08-24T12:06:27.632Z,6.00
2022-08-24T12:13:14.886Z,4.53
2022-08-24T12:16:10.212Z,6.50
2022-08-24T12:18:43.949Z,5.13
2022-08-24T12:21:15.383Z,9.35
2022-08-24T12:23:48.267Z,3.53
2022-08-24T12:26:15.449Z,5.13
2022-08-24T12:28:45.320Z,3.97
2022-08-24T12:31:18.708Z,3.60
2022-08-24T12:33:48.310Z,5.43
2022-08-24T12:36:21.991Z,3.75
2022-08-24T12:38:54.168Z,3.25
2022-08-24T12:41:27.744Z,3.40
2022-08-24T12:43:59.655Z,4.70
2022-08-24T12:49:03.551Z,5.00
2022-08-24T12:51:42.678Z,4.40
2022-08-24T12:54:18.743Z,4.43
2022-08-24T12:56:45.948Z,3.72
2022-08-24T12:59:13.674Z,5.97
2022-08-24T13:01:48.661Z,4.38
2022-08-24T13:04:34.030Z,2.63
2022-08-24T13:07:05.497Z,5.05
2022-08-24T13:09:35.226Z,3.78
2022-08-24T13:12:27.578Z,4.45
2022-08-24T13:15:23.840Z,6.72
2022-08-24T13:18:10.153Z,4.50
2022-08-24T13:20:37.845Z,3.75
2022-08-24T13:23:14.770Z,2.92
2022-08-24T13:25:42.758Z,3.17
2022-08-24T13:28:12.542Z,4.25
2022-08-24T13:30:57.456Z,4.28
2022-08-24T13:33:31.947Z,4.60
2022-08-24T13:36:03.826Z,4.25
2022-08-24T13:38:51.630Z,5.63
2022-08-24T13:41:34.389Z,3.42
2022-08-24T13:44:22.980Z,7.70
2022-08-24T13:46:59.421Z,3.17
2022-08-24T13:49:46.474Z,4.28
2022-08-24T13:52:19.979Z,2.60
2022-08-24T13:55:06.038Z,5.30
2022-08-24T13:57:43.871Z,3.05
2022-08-24T14:00:19.971Z,4.45
2022-08-24T14:03:06.093Z,2.53
2022-08-24T14:05:38.306Z,4.72
2022-08-24T14:08:11.926Z,4.82
2022-08-24T14:11:05.340Z,3.80
2022-08-24T14:13:47.657Z,5.82
2022-08-24T14:16:52.674Z,2.67
2022-08-24T14:19:31.963Z,4.68
2022-08-24T14:21:59.321Z,6.10
2022-08-24T14:24:32.407Z,4.00
2022-08-24T14:27:05.062Z,5.72
2022-08-24T14:29:34.085Z,2.47
2022-08-24T14:32:11.539Z,4.25
2022-08-24T14:34:42.405Z,4.00
2022-08-24T14:37:18.474Z,4.60
2022-08-24T14:39:51.814Z,3.78
2022-08-24T14:42:18.964Z,3.58
2022-08-24T14:45:02.355Z,3.83
2022-08-24T14:47:38.848Z,2.60
2022-08-24T14:50:13.036Z,3.80
2022-08-24T14:52:44.950Z,4.22
2022-08-24T14:55:20.992Z,2.85
2022-08-24T14:58:00.279Z,6.25
2022-08-24T15:00:53.842Z,3.92
2022-08-24T15:03:34.548Z,4.78
2022-08-24T15:06:25.615Z,4.72
2022-08-24T15:08:53.436Z,2.63
2022-08-24T15:11:27.475Z,4.10
2022-08-24T15:13:59.778Z,3.05
2022-08-24T15:16:39.167Z,2.53
2022-08-24T15:19:06.476Z,4.05
2022-08-24T15:21:52.984Z,3.78
2022-08-24T15:24:38.846Z,3.35
2022-08-24T15:27:24.895Z,3.10
2022-08-24T15:29:54.338Z,4.30
2022-08-24T15:32:22.564Z,2.03
2022-08-24T15:34:58.446Z,2.15
2022-08-24T15:37:27.220Z,3.50
2022-08-24T15:39:54.539Z,4.72
2022-08-24T15:42:22.083Z,4.43
2022-08-24T15:44:50.237Z,3.28
2022-08-24T15:47:24.043Z,2.00
2022-08-24T15:49:52.916Z,2.00
2022-08-24T15:52:32.297Z,4.18
2022-08-24T15:55:01.263Z,2.25
2022-08-24T15:57:30.090Z,2.00
2022-08-24T16:00:08.871Z,2.78
2022-08-24T16:02:38.721Z,2.22
2022-08-24T16:05:14.128Z,2.78
2022-08-24T16:08:00.459Z,2.38
2022-08-24T16:10:39.175Z,2.50
2022-08-24T16:13:15.938Z,5.32
2022-08-24T16:16:01.919Z,2.88
2022-08-24T16:18:45.215Z,4.22
2022-08-24T16:21:14.305Z,3.92
2022-08-24T16:23:44.713Z,2.72
2022-08-24T16:26:26.719Z,4.40
2022-08-24T16:28:54.719Z,4.38
2022-08-24T16:31:40.895Z,2.80
2022-08-24T16:34:22.226Z,3.30
2022-08-24T16:36:49.628Z,4.23
2022-08-24T16:39:16.733Z,3.67
2022-08-24T16:41:44.300Z,6.63
2022-08-24T16:44:11.713Z,4.13
2022-08-24T16:46:39.361Z,3.67
2022-08-24T16:49:12.564Z,5.43
2022-08-24T16:51:43.222Z,4.75
2022-08-24T16:54:12.881Z,4.80
2022-08-24T16:56:40.682Z,3.15
2022-08-24T16:59:07.821Z,4.30
2022-08-24T17:01:35.040Z,3.70
2022-08-24T17:04:02.282Z,4.35
2022-08-24T17:06:29.449Z,5.45
2022-08-24T17:08:56.618Z,4.82
2022-08-24T17:11:23.755Z,4.65
2022-08-24T17:13:51.436Z,3.88
2022-08-24T17:16:19.827Z,5.22
2022-08-24T17:18:47.091Z,7.25
2022-08-24T17:21:14.361Z,4.43
2022-08-24T17:23:42.476Z,4.32
2022-08-24T17:26:20.465Z,2.63
2022-08-24T17:28:49.327Z,3.50
2022-08-24T17:31:17.203Z,3.90
2022-08-24T17:33:44.419Z,4.25
2022-08-24T17:36:15.547Z,4.53
2022-08-24T17:38:51.743Z,4.43
2022-08-24T17:41:23.010Z,5.47
2022-08-24T17:43:50.522Z,5.68
2022-08-24T17:46:18.127Z,5.63
2022-08-24T17:48:46.280Z,4.18
2022-08-24T17:51:14.009Z,6.05
2022-08-24T17:53:41.165Z,2.42
2022-08-24T17:56:08.731Z,4.68
2022-08-24T17:58:55.864Z,3.67
2022-08-24T18:01:23.519Z,4.60
2022-08-24T18:03:50.802Z,4.18
2022-08-24T18:06:19.634Z,3.25
2022-08-24T18:08:47.591Z,3.15
2022-08-24T18:11:14.958Z,2.35
2022-08-24T18:13:42.236Z,3.65
2022-08-24T18:16:16.543Z,4.47
2022-08-24T18:18:43.817Z,3.88
2022-08-24T18:21:11.501Z,3.67
2022-08-24T18:23:43.573Z,3.33
2022-08-24T18:28:38.766Z,2.75
2022-08-24T18:31:10.400Z,5.50
2022-08-24T18:33:37.633Z,6.18
2022-08-24T18:36:04.891Z,6.25
2022-08-24T18:45:53.418Z,8.30
2022-08-24T18:48:21.190Z,5.65
2022-08-24T18:50:48.781Z,7.57
2022-08-24T18:53:17.032Z,4.45
2022-08-24T18:55:46.196Z,4.65
2022-08-24T18:58:13.333Z,7.40
2022-08-24T19:00:41.606Z,5.78
2022-08-24T19:03:09.870Z,4.90
2022-08-24T19:05:38.301Z,5.70
2022-08-24T19:08:06.503Z,11.15
2022-08-24T19:10:35.826Z,3.30
2022-08-24T19:13:04.690Z,8.63
2022-08-24T19:15:39.615Z,7.75
2022-08-24T19:18:09.768Z,6.00
2022-08-24T19:20:37.529Z,7.10
2022-08-24T19:23:09.284Z,6.03
2022-08-24T19:25:36.875Z,3.58
2022-08-24T19:28:04.942Z,4.35
2022-08-24T19:30:32.549Z,6.68
2022-08-24T19:33:00.425Z,7.53
2022-08-24T19:35:28.128Z,10.60
2022-08-24T19:37:55.325Z,5.93
2022-08-24T19:40:22.567Z,5.70
2022-08-24T19:42:51.146Z,5.95
2022-08-24T19:45:39.063Z,12.00
2022-08-24T19:48:06.367Z,13.30
2022-08-24T19:50:35.991Z,5.88
2022-08-24T19:53:04.503Z,6.65
2022-08-24T19:55:32.524Z,5.13
2022-08-24T19:58:11.958Z,6.95
2022-08-24T20:00:47.054Z,5.55
2022-08-24T20:03:16.356Z,7.07
2022-08-24T20:05:45.764Z,5.57
2022-08-24T20:08:13.194Z,8.60
2022-08-24T20:13:08.194Z,4.15
2022-08-24T20:15:35.760Z,8.43
2022-08-24T20:18:03.284Z,6.53
2022-08-24T20:20:31.211Z,8.65
2022-08-24T20:23:03.067Z,6.68
2022-08-24T20:25:30.738Z,5.90
2022-08-24T20:28:25.521Z,7.35
2022-08-24T20:30:46.389Z,8.88
2022-08-24T20:33:16.141Z,8.85
2022-08-24T20:35:43.889Z,4.95
2022-08-24T20:45:35.343Z,4.53
2022-08-24T20:48:11.946Z,4.63
2022-08-24T20:50:54.656Z,6.07
2022-08-24T20:53:21.827Z,5.78
2022-08-24T20:55:49.020Z,10.63
2022-08-24T20:58:17.903Z,4.88
2022-08-24T21:00:46.416Z,6.40
2022-08-24T21:03:16.117Z,3.72
2022-08-24T21:05:44.052Z,5.68
2022-08-24T21:08:12.283Z,6.40
2022-08-24T21:10:39.937Z,5.35
2022-08-24T21:13:07.100Z,4.15
2022-08-24T21:15:34.486Z,5.35
2022-08-24T21:18:02.989Z,4.93
2022-08-24T21:20:30.190Z,4.18
2022-08-24T21:22:57.337Z,6.25
2022-08-24T21:25:24.556Z,5.35
2022-08-24T21:27:51.722Z,7.00
2022-08-24T21:30:20.448Z,5.40
2022-08-24T21:33:06.352Z,6.38
2022-08-24T21:35:33.861Z,3.67
2022-08-24T21:38:00.970Z,4.25
2022-08-24T21:40:28.744Z,6.22
2022-08-24T21:42:56.053Z,5.63
2022-08-24T21:45:24.062Z,5.47
2022-08-24T21:47:51.345Z,5.18
2022-08-24T21:50:18.794Z,5.07
2022-08-24T21:52:53.647Z,4.53
2022-08-24T21:55:21.520Z,3.97
2022-08-24T21:57:48.734Z,6.05
2022-08-24T22:00:18.604Z,5.88
2022-08-24T22:02:47.355Z,4.22
2022-08-24T22:05:15.602Z,6.57
2022-08-24T22:07:43.065Z,5.68
2022-08-24T22:10:11.957Z,6.47
2022-08-24T22:12:40.276Z,8.93
2022-08-24T22:15:09.161Z,6.82
2022-08-24T22:17:36.293Z,7.05
2022-08-24T22:20:04.459Z,7.68
2022-08-24T22:22:32.403Z,7.82
2022-08-24T22:24:59.519Z,9.85
2022-08-24T22:27:26.659Z,7.20
2022-08-24T22:29:53.784Z,7.15
2022-08-24T22:32:20.972Z,7.18
2022-08-24T22:34:48.098Z,7.47
2022-08-24T22:37:15.244Z,5.72
2022-08-24T22:39:42.378Z,7.60
2022-08-24T22:42:09.643Z,7.15
2022-08-24T22:44:36.852Z,9.02
2022-08-24T22:47:06.917Z,6.45
2022-08-24T22:49:43.564Z,8.68
2022-08-24T22:52:11.064Z,7.90
2022-08-24T22:54:38.223Z,7.43
2022-08-24T22:57:05.695Z,6.38
2022-08-24T22:59:35.611Z,7.00
2022-08-24T23:02:07.041Z,7.22
2022-08-24T23:04:36.458Z,8.93
2022-08-24T23:07:04.659Z,9.13
2022-08-24T23:09:44.061Z,5.50
2022-08-24T23:12:12.650Z,6.63
2022-08-24T23:14:40.358Z,6.03
2022-08-24T23:17:07.508Z,7.93
2022-08-24T23:19:53.218Z,7.45
2022-08-24T23:22:21.123Z,6.00
2022-08-24T23:24:48.872Z,5.63
2022-08-24T23:27:17.368Z,8.52
2022-08-24T23:29:45.896Z,8.20
2022-08-24T23:32:13.673Z,5.53
2022-08-24T23:34:45.076Z,5.97
2022-08-24T23:37:12.640Z,6.72
2022-08-24T23:39:39.889Z,10.15
2022-08-24T23:42:07.177Z,11.02
2022-08-24T23:44:34.465Z,12.07
2022-08-24T23:47:01.835Z,8.20
2022-08-24T23:49:29.612Z,7.50
2022-08-24T23:51:57.183Z,12.35
2022-08-24T23:54:24.810Z,6.68
2022-08-24T23:56:52.803Z,7.32
2022-08-24T23:59:22.838Z,6.60
